Time;durP1;ratioP1;P1;durP2;ratioP2;P2;SDS_P1;SDS_P2;PMS_P1;PMS_P2;Temp;Humidity;BMP_temperature;BMP_pressure;BME280_temperature;BME280_humidity;BME280_pressure;Samples;Min_cycle;Max_cycle;Signal;HPM_P1;HPM_P2
2022/10/22 00:00:22;;;;;;;;;;;11.80;99.90;;;;;;4997282;28;20505;-84
2022/10/22 00:02:47;;;;;;;;;;;11.70;99.90;;;;;;5009875;28;19921;-84
2022/10/22 00:05:13;;;;;;;;;;;11.70;99.90;;;;;;5006962;28;19984;-86
2022/10/22 00:07:38;;;;;;;;;;;11.70;99.90;;;;;;5006795;28;19968;-85
2022/10/22 00:10:04;;;;;;;;;;;11.70;99.90;;;;;;5004125;28;20377;-85
2022/10/22 00:12:30;;;;;;;;;;;11.70;99.90;;;;;;5006444;28;20635;-87
2022/10/22 00:14:55;;;;;;;;;;;11.70;99.90;;;;;;5004891;28;19997;-86
2022/10/22 00:17:24;;;;;;;;;;;11.60;99.90;;;;;;5007928;28;19914;-86
2022/10/22 00:19:50;;;;;;;;;;;11.60;99.90;;;;;;4994306;28;19917;-84
2022/10/22 00:22:15;;;;;;;;;;;11.60;99.90;;;;;;5024995;28;19920;-87
2022/10/22 00:24:41;;;;;;;;;;;11.50;99.90;;;;;;5022678;28;20012;-85
2022/10/22 00:27:07;;;;;;;;;;;11.50;99.90;;;;;;5025807;28;20032;-85
2022/10/22 00:29:33;;;;;;;;;;;11.50;99.90;;;;;;5025999;28;19917;-85
2022/10/22 00:31:59;;;;;;;;;;;11.50;99.90;;;;;;5009088;28;19924;-84
2022/10/22 00:34:24;;;;;;;;;;;11.50;99.90;;;;;;5015564;28;19967;-86
2022/10/22 00:36:50;;;;;;;;;;;11.50;99.90;;;;;;5012293;28;19914;-88
2022/10/22 00:39:17;;;;;;;;;;;11.50;99.90;;;;;;5026680;28;19913;-84
2022/10/22 00:41:52;;;;;;;;;;;11.50;99.90;;;;;;5030562;28;20400;-86
2022/10/22 00:44:36;;;;;;;;;;;11.40;99.90;;;;;;5027857;28;19913;-85
2022/10/22 00:47:11;;;;;;;;;;;11.40;99.90;;;;;;5024965;28;19975;-86
2022/10/22 00:49:36;;;;;;;;;;;11.40;99.90;;;;;;5008092;28;19921;-85
2022/10/22 00:52:10;;;;;;;;;;;11.40;99.90;;;;;;5024715;28;19921;-84
2022/10/22 00:54:49;;;;;;;;;;;11.30;99.90;;;;;;5020228;28;19914;-85
2022/10/22 00:57:46;;;;;;;;;;;11.30;99.90;;;;;;5024755;28;19916;-86
2022/10/22 01:00:32;;;;;;;;;;;11.30;99.90;;;;;;5026259;28;20036;-86
2022/10/22 01:07:09;;;;;;;;;;;;;;;;;;;;;
2022/10/22 01:09:39;;;;;;;;;;;;;;;;;;;;;
2022/10/22 01:12:24;;;;;;;;;;;11.30;99.90;;;;;;5029150;28;19913;-87
2022/10/22 01:15:14;;;;;;;;;;;11.30;99.90;;;;;;5011081;28;19917;-84
2022/10/22 01:18:30;;;;;;;;;;;11.30;99.90;;;;;;5022618;28;19936;-85
2022/10/22 01:25:24;;;;;;;;;;;11.30;99.90;;;;;;4943763;29;19919;-84
2022/10/22 01:27:53;;;;;;;;;;;11.30;99.90;;;;;;5020432;28;19925;-85
2022/10/22 01:30:44;;;;;;;;;;;11.20;99.90;;;;;;5008678;28;19913;-86
2022/10/22 01:33:59;;;;;;;;;;;11.30;99.90;;;;;;5014709;28;19913;-85
2022/10/22 01:36:31;;;;;;;;;;;11.20;99.90;;;;;;5025545;28;19913;-85
2022/10/22 01:39:15;;;;;;;;;;;11.20;99.90;;;;;;5021870;28;19918;-86
2022/10/22 01:45:00;;;;;;;;;;;11.20;99.90;;;;;;5025846;28;19924;-85
2022/10/22 01:47:40;;;;;;;;;;;11.20;99.90;;;;;;5021089;28;19999;-85
2022/10/22 01:50:33;;;;;;;;;;;11.20;99.90;;;;;;5007132;28;19922;-87
2022/10/22 01:53:29;;;;;;;;;;;11.30;99.90;;;;;;5028827;28;19913;-88
2022/10/22 01:56:29;;;;;;;;;;;;;;;;;;;;;
2022/10/22 02:02:48;;;;;;;;;;;11.30;99.90;;;;;;4942925;28;19926;-85
2022/10/22 02:08:14;;;;;;;;;;;11.30;99.90;;;;;;5015859;28;19917;-88
2022/10/22 02:10:42;;;;;;;;;;;11.30;99.90;;;;;;5023201;28;19965;-87
2022/10/22 02:13:09;;;;;;;;;;;11.30;99.90;;;;;;5027155;28;19913;-86
2022/10/22 02:15:35;;;;;;;;;;;11.30;99.90;;;;;;5029768;28;20559;-86
2022/10/22 02:18:02;;;;;;;;;;;11.30;99.90;;;;;;5025323;28;20440;-86
2022/10/22 02:20:30;;;;;;;;;;;11.20;99.90;;;;;;5021473;28;20299;-88
2022/10/22 02:22:56;;;;;;;;;;;11.20;99.90;;;;;;5002988;28;19913;-86
2022/10/22 02:25:23;;;;;;;;;;;11.20;99.90;;;;;;5010236;28;20043;-87
2022/10/22 02:27:57;;;;;;;;;;;11.20;99.90;;;;;;5031219;28;19928;-86
2022/10/22 02:30:23;;;;;;;;;;;11.20;99.90;;;;;;5030962;28;19921;-85
2022/10/22 02:32:54;;;;;;;;;;;11.20;99.90;;;;;;5028323;28;19913;-84
2022/10/22 02:35:21;;;;;;;;;;;11.10;99.90;;;;;;5029186;28;19963;-88
2022/10/22 02:37:47;;;;;;;;;;;11.20;99.90;;;;;;5020223;28;19913;-85
2022/10/22 02:40:13;;;;;;;;;;;11.10;99.90;;;;;;5032090;28;19940;-88
2022/10/22 02:42:40;;;;;;;;;;;11.20;99.90;;;;;;5028679;28;19917;-86
2022/10/22 02:45:06;;;;;;;;;;;11.20;99.90;;;;;;5031787;28;19922;-88
2022/10/22 02:47:31;;;;;;;;;;;11.10;99.90;;;;;;5018135;28;19928;-87
2022/10/22 02:49:57;;;;;;;;;;;11.10;99.90;;;;;;5031564;28;19943;-85
2022/10/22 02:52:23;;;;;;;;;;;11.10;99.90;;;;;;5021159;28;20375;-86
2022/10/22 02:54:48;;;;;;;;;;;11.10;99.90;;;;;;5027801;28;20410;-87
2022/10/22 02:57:14;;;;;;;;;;;11.00;99.90;;;;;;5029065;28;19917;-87
2022/10/22 02:59:39;;;;;;;;;;;11.10;99.90;;;;;;5021420;28;19922;-85
2022/10/22 03:02:05;;;;;;;;;;;11.10;99.90;;;;;;5022804;28;20034;-84
2022/10/22 03:04:30;;;;;;;;;;;11.10;99.90;;;;;;5030235;28;19917;-87
2022/10/22 03:06:56;;;;;;;;;;;11.10;99.90;;;;;;5031367;28;19917;-87
2022/10/22 03:09:21;;;;;;;;;;;11.10;99.90;;;;;;5030747;28;19924;-84
2022/10/22 03:11:47;;;;;;;;;;;11.10;99.90;;;;;;5011221;28;20044;-87
2022/10/22 03:14:12;;;;;;;;;;;11.10;99.90;;;;;;5022143;28;19944;-85
2022/10/22 03:16:38;;;;;;;;;;;11.10;99.90;;;;;;5025645;28;19917;-87
2022/10/22 03:19:12;;;;;;;;;;;11.10;99.90;;;;;;5030742;28;19925;-87
2022/10/22 03:21:47;;;;;;;;;;;11.10;99.90;;;;;;5025044;28;20053;-85
2022/10/22 03:24:39;;;;;;;;;;;11.20;99.90;;;;;;5022321;28;20021;-86
2022/10/22 03:27:05;;;;;;;;;;;11.20;99.90;;;;;;5008787;28;20288;-85
2022/10/22 03:29:41;;;;;;;;;;;11.10;99.90;;;;;;5027172;28;19921;-84
2022/10/22 03:32:07;;;;;;;;;;;11.10;99.90;;;;;;5008590;28;19956;-84
2022/10/22 03:34:33;;;;;;;;;;;11.10;99.90;;;;;;5026259;28;19953;-86
2022/10/22 03:36:59;;;;;;;;;;;11.10;99.90;;;;;;5021821;28;19957;-86
2022/10/22 03:39:25;;;;;;;;;;;11.10;99.90;;;;;;5028556;28;19925;-84
2022/10/22 03:41:54;;;;;;;;;;;11.10;99.90;;;;;;5024548;28;20445;-86
2022/10/22 03:44:20;;;;;;;;;;;11.10;99.90;;;;;;5022625;28;20409;-85
2022/10/22 03:46:46;;;;;;;;;;;11.20;99.90;;;;;;5007792;28;20301;-85
2022/10/22 03:49:11;;;;;;;;;;;11.20;99.90;;;;;;5026002;28;19937;-84
2022/10/22 03:51:37;;;;;;;;;;;11.20;99.90;;;;;;5010410;28;19955;-85
2022/10/22 03:54:03;;;;;;;;;;;11.20;99.90;;;;;;5022633;28;19928;-85
2022/10/22 03:56:28;;;;;;;;;;;11.20;99.90;;;;;;5029547;28;20390;-85
2022/10/22 03:58:58;;;;;;;;;;;11.20;99.90;;;;;;5034368;28;19921;-84
2022/10/22 04:01:23;;;;;;;;;;;11.10;99.90;;;;;;5025832;28;19917;-86
2022/10/22 04:03:49;;;;;;;;;;;11.10;99.90;;;;;;5030606;28;19944;-84
2022/10/22 04:06:14;;;;;;;;;;;11.10;99.90;;;;;;5023695;28;20465;-85
2022/10/22 04:08:41;;;;;;;;;;;11.10;99.90;;;;;;5028500;28;19985;-84
2022/10/22 04:11:06;;;;;;;;;;;11.10;99.90;;;;;;5025483;28;20344;-85
2022/10/22 04:13:32;;;;;;;;;;;11.10;99.90;;;;;;5000548;28;20047;-86
2022/10/22 04:16:20;;;;;;;;;;;11.00;99.90;;;;;;5018912;28;20384;-86
2022/10/22 04:19:17;;;;;;;;;;;11.10;99.90;;;;;;5023289;28;19921;-83
2022/10/22 04:21:54;;;;;;;;;;;11.10;99.90;;;;;;4979826;28;20373;-84
2022/10/22 04:27:31;;;;;;;;;;;11.10;99.90;;;;;;5013635;28;19929;-84
2022/10/22 04:30:02;;;;;;;;;;;11.10;99.90;;;;;;5029687;28;19949;-85
2022/10/22 04:32:28;;;;;;;;;;;11.10;99.90;;;;;;5029852;28;19922;-86
2022/10/22 04:34:54;;;;;;;;;;;11.10;99.90;;;;;;5020995;28;19972;-85
2022/10/22 04:37:19;;;;;;;;;;;11.10;99.90;;;;;;5005413;28;19917;-89
2022/10/22 04:39:45;;;;;;;;;;;11.10;99.90;;;;;;5028600;28;19919;-86
2022/10/22 04:42:11;;;;;;;;;;;11.10;99.90;;;;;;5030769;28;20039;-85
2022/10/22 04:44:37;;;;;;;;;;;11.10;99.90;;;;;;5025123;28;19913;-87
2022/10/22 04:47:02;;;;;;;;;;;11.00;99.90;;;;;;5034046;28;19917;-87
2022/10/22 04:49:28;;;;;;;;;;;11.00;99.90;;;;;;5013393;28;19921;-87
2022/10/22 04:51:53;;;;;;;;;;;11.10;99.90;;;;;;5021299;28;19917;-85
2022/10/22 04:54:19;;;;;;;;;;;10.90;99.90;;;;;;5026364;28;19999;-86
2022/10/22 04:56:47;;;;;;;;;;;11.00;99.90;;;;;;5007006;28;19921;-85
2022/10/22 04:59:13;;;;;;;;;;;11.00;99.90;;;;;;5004461;28;19921;-86
2022/10/22 05:01:40;;;;;;;;;;;11.00;99.90;;;;;;5023811;28;20262;-85
2022/10/22 05:04:06;;;;;;;;;;;10.90;99.90;;;;;;5025726;28;19922;-84
2022/10/22 05:06:33;;;;;;;;;;;10.90;99.90;;;;;;5026141;28;19921;-86
2022/10/22 05:09:19;;;;;;;;;;;10.90;99.90;;;;;;5025049;28;19913;-85
2022/10/22 05:11:47;;;;;;;;;;;10.90;99.90;;;;;;5027052;28;19917;-86
2022/10/22 05:14:13;;;;;;;;;;;10.90;99.90;;;;;;5022361;28;20012;-86
2022/10/22 05:16:39;;;;;;;;;;;11.00;99.90;;;;;;5027157;28;20030;-86
2022/10/22 05:19:05;;;;;;;;;;;10.90;99.90;;;;;;5028865;28;20467;-86
2022/10/22 05:21:31;;;;;;;;;;;11.00;99.90;;;;;;5030249;28;19960;-86
2022/10/22 05:23:58;;;;;;;;;;;10.90;99.90;;;;;;5027312;28;20002;-85
2022/10/22 05:26:24;;;;;;;;;;;10.90;99.90;;;;;;5033124;28;19936;-86
2022/10/22 05:28:50;;;;;;;;;;;10.90;99.90;;;;;;5024445;28;19913;-85
2022/10/22 05:31:16;;;;;;;;;;;10.90;99.90;;;;;;5029782;28;19917;-86
2022/10/22 05:33:42;;;;;;;;;;;10.90;99.90;;;;;;5027906;28;19963;-85
2022/10/22 05:36:10;;;;;;;;;;;11.00;99.90;;;;;;5020984;28;19914;-87
2022/10/22 05:38:36;;;;;;;;;;;10.90;99.90;;;;;;5027815;28;20012;-85
2022/10/22 05:41:07;;;;;;;;;;;11.00;99.90;;;;;;5031561;28;20430;-86
2022/10/22 05:43:33;;;;;;;;;;;11.00;99.90;;;;;;5011375;28;19959;-84
2022/10/22 05:46:05;;;;;;;;;;;11.00;99.90;;;;;;5033128;28;19940;-86
2022/10/22 05:48:31;;;;;;;;;;;11.00;99.90;;;;;;5032337;28;19913;-87
2022/10/22 05:50:57;;;;;;;;;;;11.00;99.90;;;;;;5030133;28;19932;-85
2022/10/22 05:53:22;;;;;;;;;;;10.90;99.90;;;;;;5031078;28;20030;-86
2022/10/22 05:55:48;;;;;;;;;;;10.90;99.90;;;;;;5032469;28;19960;-84
2022/10/22 05:58:13;;;;;;;;;;;10.90;99.90;;;;;;5033019;28;19921;-84
2022/10/22 06:00:39;;;;;;;;;;;10.90;99.90;;;;;;5030997;28;19968;-87
2022/10/22 06:03:05;;;;;;;;;;;10.90;99.90;;;;;;5031196;28;20028;-85
2022/10/22 06:05:33;;;;;;;;;;;11.00;99.90;;;;;;5028436;28;20013;-85
2022/10/22 06:07:59;;;;;;;;;;;10.90;99.90;;;;;;5032239;28;20003;-86
2022/10/22 06:10:25;;;;;;;;;;;10.90;99.90;;;;;;5028617;28;19963;-84
2022/10/22 06:12:50;;;;;;;;;;;11.00;99.90;;;;;;5029579;28;19957;-82
2022/10/22 06:15:17;;;;;;;;;;;11.00;99.90;;;;;;5031977;28;19943;-85
2022/10/22 06:17:46;;;;;;;;;;;11.00;99.90;;;;;;5029716;28;20650;-83
2022/10/22 06:20:12;;;;;;;;;;;11.00;99.90;;;;;;5027096;28;19928;-83
2022/10/22 06:22:38;;;;;;;;;;;11.00;99.90;;;;;;5031000;28;19998;-84
2022/10/22 06:25:04;;;;;;;;;;;11.10;99.90;;;;;;5031573;28;20377;-85
2022/10/22 06:27:29;;;;;;;;;;;11.10;99.90;;;;;;5030953;28;20004;-86
2022/10/22 06:29:55;;;;;;;;;;;11.10;99.90;;;;;;5026686;28;20012;-82
2022/10/22 06:32:20;;;;;;;;;;;11.10;99.90;;;;;;5028235;28;20408;-84
2022/10/22 06:34:47;;;;;;;;;;;11.10;99.90;;;;;;5029297;28;19931;-84
2022/10/22 06:37:14;;;;;;;;;;;11.10;99.90;;;;;;5009629;28;19935;-86
2022/10/22 06:39:39;;;;;;;;;;;11.10;99.90;;;;;;5030179;28;20588;-84
2022/10/22 06:42:05;;;;;;;;;;;11.10;99.90;;;;;;5022183;28;19913;-85
2022/10/22 06:44:30;;;;;;;;;;;11.10;99.90;;;;;;5024930;28;20004;-84
2022/10/22 06:46:56;;;;;;;;;;;11.20;99.90;;;;;;5029501;28;19921;-86
2022/10/22 06:49:21;;;;;;;;;;;11.20;99.90;;;;;;5025329;28;19921;-85
2022/10/22 06:51:53;;;;;;;;;;;11.20;99.90;;;;;;5024846;28;19918;-83
2022/10/22 06:54:19;;;;;;;;;;;11.20;99.90;;;;;;5027343;28;19921;-83
2022/10/22 06:56:45;;;;;;;;;;;11.20;99.90;;;;;;5028624;28;20225;-84
2022/10/22 06:59:10;;;;;;;;;;;11.20;99.90;;;;;;5024413;28;19920;-84
2022/10/22 07:01:36;;;;;;;;;;;11.20;99.90;;;;;;5008680;28;19976;-87
2022/10/22 07:04:02;;;;;;;;;;;11.20;99.90;;;;;;5025172;28;19917;-85
2022/10/22 07:06:28;;;;;;;;;;;11.20;99.90;;;;;;5017504;28;19924;-84
2022/10/22 07:08:54;;;;;;;;;;;11.20;99.90;;;;;;5009664;28;19924;-87
2022/10/22 07:11:30;;;;;;;;;;;11.30;99.90;;;;;;5024603;28;19919;-87
2022/10/22 07:13:56;;;;;;;;;;;11.30;99.90;;;;;;5026572;28;19920;-86
2022/10/22 07:16:22;;;;;;;;;;;11.40;99.90;;;;;;5031018;28;19927;-84
2022/10/22 07:18:48;;;;;;;;;;;11.40;99.90;;;;;;5021767;28;20629;-84
2022/10/22 07:21:15;;;;;;;;;;;11.40;99.90;;;;;;5026465;28;20258;-84
2022/10/22 07:23:40;;;;;;;;;;;11.40;99.90;;;;;;5026422;28;19999;-86
2022/10/22 07:26:07;;;;;;;;;;;11.40;99.90;;;;;;5017764;28;20011;-84
2022/10/22 07:28:37;;;;;;;;;;;11.40;99.90;;;;;;5028557;28;20435;-84
2022/10/22 07:31:03;;;;;;;;;;;11.50;99.90;;;;;;5026707;28;19971;-86
2022/10/22 07:33:28;;;;;;;;;;;11.40;99.90;;;;;;5027035;28;19921;-87
2022/10/22 07:35:58;;;;;;;;;;;11.50;99.90;;;;;;5002831;28;20623;-85
2022/10/22 07:38:24;;;;;;;;;;;11.50;99.90;;;;;;5022553;28;19913;-86
2022/10/22 07:40:49;;;;;;;;;;;11.50;99.90;;;;;;5032012;28;20400;-85
2022/10/22 07:43:15;;;;;;;;;;;11.50;99.90;;;;;;5028249;28;20004;-85
2022/10/22 07:45:40;;;;;;;;;;;11.60;99.90;;;;;;5022469;28;19927;-86
2022/10/22 07:48:06;;;;;;;;;;;11.60;99.90;;;;;;5028191;28;19921;-87
2022/10/22 07:50:31;;;;;;;;;;;11.70;99.90;;;;;;5025711;28;19921;-87
2022/10/22 07:52:57;;;;;;;;;;;11.70;99.90;;;;;;5025230;28;20566;-87
2022/10/22 07:55:22;;;;;;;;;;;11.80;99.90;;;;;;5028620;28;20359;-87
2022/10/22 07:57:48;;;;;;;;;;;11.70;99.90;;;;;;5025511;28;20408;-87
2022/10/22 08:00:14;;;;;;;;;;;11.80;99.90;;;;;;5009893;28;19913;-87
2022/10/22 08:02:39;;;;;;;;;;;11.80;99.90;;;;;;5021916;28;19921;-86
2022/10/22 08:05:05;;;;;;;;;;;11.70;99.90;;;;;;5024335;28;19952;-84
2022/10/22 08:07:31;;;;;;;;;;;11.70;99.90;;;;;;5025572;28;19917;-88
2022/10/22 08:09:56;;;;;;;;;;;11.70;99.90;;;;;;5025701;28;19917;-86
2022/10/22 08:12:22;;;;;;;;;;;11.80;99.90;;;;;;5016362;28;19917;-86
2022/10/22 08:14:47;;;;;;;;;;;11.80;99.90;;;;;;5029533;28;20447;-84
2022/10/22 08:17:14;;;;;;;;;;;11.80;99.90;;;;;;5034106;28;20557;-86
2022/10/22 08:19:39;;;;;;;;;;;11.80;99.90;;;;;;5032422;28;19917;-86
2022/10/22 08:22:05;;;;;;;;;;;11.90;99.90;;;;;;5030815;28;19924;-86
2022/10/22 08:24:30;;;;;;;;;;;11.90;99.90;;;;;;5019059;28;19928;-86
2022/10/22 08:26:56;;;;;;;;;;;12.10;99.90;;;;;;5035940;28;20011;-85
2022/10/22 08:29:22;;;;;;;;;;;12.20;99.90;;;;;;4999058;28;19943;-85
2022/10/22 08:31:48;;;;;;;;;;;12.20;99.90;;;;;;5014124;28;19925;-86
2022/10/22 08:34:14;;;;;;;;;;;12.30;99.90;;;;;;5036402;28;20238;-86
2022/10/22 08:36:40;;;;;;;;;;;12.50;99.90;;;;;;5028690;28;19970;-87
2022/10/22 08:39:05;;;;;;;;;;;12.80;99.90;;;;;;5034560;28;20043;-84
2022/10/22 08:41:35;;;;;;;;;;;12.80;99.90;;;;;;5030405;28;19999;-86
2022/10/22 08:44:21;;;;;;;;;;;12.90;99.90;;;;;;5029257;28;19921;-85
2022/10/22 08:47:09;;;;;;;;;;;13.20;99.90;;;;;;5033760;28;20257;-85
2022/10/22 08:49:37;;;;;;;;;;;13.20;99.90;;;;;;5014137;28;19945;-85
2022/10/22 08:52:03;;;;;;;;;;;13.20;99.90;;;;;;5029322;28;19923;-84
2022/10/22 08:54:48;;;;;;;;;;;13.10;99.90;;;;;;5031141;28;20004;-86
2022/10/22 08:57:32;;;;;;;;;;;13.10;99.90;;;;;;5031520;28;19921;-85
2022/10/22 09:00:00;;;;;;;;;;;13.10;99.90;;;;;;5031207;28;19917;-85
2022/10/22 09:02:44;;;;;;;;;;;13.20;99.90;;;;;;5034179;28;19917;-84
2022/10/22 09:05:29;;;;;;;;;;;13.70;99.90;;;;;;5016468;28;19921;-85
2022/10/22 09:07:54;;;;;;;;;;;13.50;99.90;;;;;;5034636;28;19917;-85
2022/10/22 09:10:23;;;;;;;;;;;13.80;99.90;;;;;;5035638;28;19917;-85
2022/10/22 09:12:48;;;;;;;;;;;13.70;99.90;;;;;;5031764;28;19917;-84
2022/10/22 09:15:15;;;;;;;;;;;14.00;99.90;;;;;;5034032;28;19932;-82
2022/10/22 09:17:49;;;;;;;;;;;14.00;99.90;;;;;;5032066;28;19913;-82
2022/10/22 09:20:27;;;;;;;;;;;13.80;99.90;;;;;;5026520;28;19917;-85
2022/10/22 09:22:52;;;;;;;;;;;13.70;99.90;;;;;;5032462;28;19987;-82
2022/10/22 09:25:18;;;;;;;;;;;13.80;99.90;;;;;;5032830;28;19921;-82
2022/10/22 09:27:44;;;;;;;;;;;13.60;99.90;;;;;;5032552;28;19952;-82
2022/10/22 09:30:15;;;;;;;;;;;13.50;99.90;;;;;;5010215;28;19932;-82
2022/10/22 09:32:40;;;;;;;;;;;13.60;99.90;;;;;;5012975;28;19929;-84
2022/10/22 09:35:08;;;;;;;;;;;13.60;99.90;;;;;;5025765;28;19913;-82
2022/10/22 09:37:34;;;;;;;;;;;13.70;99.90;;;;;;5027665;28;20584;-83
2022/10/22 09:40:03;;;;;;;;;;;13.90;99.90;;;;;;5029597;28;19921;-83
2022/10/22 09:42:28;;;;;;;;;;;13.80;99.90;;;;;;5029622;28;19913;-83
2022/10/22 09:44:56;;;;;;;;;;;14.00;99.90;;;;;;5028885;28;20023;-83
2022/10/22 09:47:37;;;;;;;;;;;14.20;99.90;;;;;;5021109;28;19921;-83
2022/10/22 09:50:05;;;;;;;;;;;13.90;99.90;;;;;;5030939;28;19928;-83
2022/10/22 09:52:33;;;;;;;;;;;14.10;99.90;;;;;;5026128;28;19943;-84
2022/10/22 09:55:00;;;;;;;;;;;14.20;99.90;;;;;;5029645;28;20408;-83
2022/10/22 09:57:27;;;;;;;;;;;14.20;99.90;;;;;;5026121;28;19924;-84
2022/10/22 09:59:53;;;;;;;;;;;14.00;99.90;;;;;;5025441;28;19947;-83
2022/10/22 10:02:20;;;;;;;;;;;14.00;99.90;;;;;;5028639;28;19924;-83
2022/10/22 10:04:47;;;;;;;;;;;14.20;99.90;;;;;;5002947;28;19953;-83
2022/10/22 10:07:17;;;;;;;;;;;13.80;99.90;;;;;;5008921;28;20269;-83
2022/10/22 10:09:43;;;;;;;;;;;13.80;99.90;;;;;;5026005;28;19921;-83
2022/10/22 10:12:18;;;;;;;;;;;13.50;99.90;;;;;;5018825;28;19917;-84
2022/10/22 10:14:52;;;;;;;;;;;13.60;99.90;;;;;;5024591;28;19961;-84
2022/10/22 10:17:30;;;;;;;;;;;13.50;99.90;;;;;;5031556;28;19960;-84
2022/10/22 10:20:02;;;;;;;;;;;13.70;99.90;;;;;;5001460;28;19921;-82
2022/10/22 10:22:31;;;;;;;;;;;14.10;99.90;;;;;;5011673;28;19913;-83
2022/10/22 10:24:56;;;;;;;;;;;14.30;99.90;;;;;;5020927;28;19944;-82
2022/10/22 10:27:26;;;;;;;;;;;14.50;99.90;;;;;;5024050;28;20340;-83
2022/10/22 10:29:58;;;;;;;;;;;14.70;99.90;;;;;;5026392;28;19987;-83
2022/10/22 10:32:26;;;;;;;;;;;14.90;99.90;;;;;;5024843;28;20008;-82
2022/10/22 10:34:55;;;;;;;;;;;15.20;99.90;;;;;;5023988;28;20062;-83
2022/10/22 10:37:23;;;;;;;;;;;15.20;99.90;;;;;;5023615;28;20003;-82
2022/10/22 10:39:55;;;;;;;;;;;15.20;99.90;;;;;;5030602;28;19968;-82
2022/10/22 10:42:30;;;;;;;;;;;15.30;99.50;;;;;;5026147;28;19917;-83
2022/10/22 10:44:55;;;;;;;;;;;15.50;98.00;;;;;;5019305;28;19913;-83
2022/10/22 10:47:40;;;;;;;;;;;15.80;98.10;;;;;;5031599;28;19936;-82
2022/10/22 10:50:17;;;;;;;;;;;16.00;96.80;;;;;;5023717;28;20012;-82
2022/10/22 10:52:58;;;;;;;;;;;15.90;96.30;;;;;;5025001;28;19967;-82
2022/10/22 10:55:32;;;;;;;;;;;16.00;96.60;;;;;;5028028;28;19917;-82
2022/10/22 10:58:07;;;;;;;;;;;15.90;95.70;;;;;;5023736;28;19913;-82
2022/10/22 11:00:38;;;;;;;;;;;15.80;95.70;;;;;;5024823;28;19925;-82
2022/10/22 11:03:03;;;;;;;;;;;15.80;96.10;;;;;;5025761;28;20481;-82
2022/10/22 11:05:29;;;;;;;;;;;15.80;96.70;;;;;;5018320;28;19935;-82
2022/10/22 11:07:56;;;;;;;;;;;15.90;96.10;;;;;;5024511;28;19917;-82
2022/10/22 11:10:40;;;;;;;;;;;15.80;92.30;;;;;;5029344;28;20024;-82
2022/10/22 11:13:25;;;;;;;;;;;15.90;92.80;;;;;;5002892;28;19913;-82
2022/10/22 11:15:54;;;;;;;;;;;15.80;92.30;;;;;;5028350;28;20434;-83
2022/10/22 11:18:40;;;;;;;;;;;15.80;92.40;;;;;;5030853;28;20427;-83
2022/10/22 11:21:26;;;;;;;;;;;15.70;92.40;;;;;;5017983;28;19920;-84
2022/10/22 11:23:55;;;;;;;;;;;15.70;92.80;;;;;;5028594;28;19917;-83
2022/10/22 11:26:41;;;;;;;;;;;15.60;92.40;;;;;;5030258;28;19923;-83
2022/10/22 11:29:10;;;;;;;;;;;15.70;93.70;;;;;;5008143;28;20412;-83
2022/10/22 11:31:36;;;;;;;;;;;15.80;92.60;;;;;;5021905;28;20403;-83
2022/10/22 11:34:21;;;;;;;;;;;15.90;92.70;;;;;;5031202;28;20008;-84
2022/10/22 11:36:47;;;;;;;;;;;16.00;91.80;;;;;;5020475;28;20040;-84
2022/10/22 11:39:31;;;;;;;;;;;15.90;90.10;;;;;;5026609;28;19971;-83
2022/10/22 11:41:58;;;;;;;;;;;15.80;90.60;;;;;;5029375;28;20054;-83
2022/10/22 11:44:24;;;;;;;;;;;15.90;91.70;;;;;;5012470;28;19921;-83
2022/10/22 11:46:54;;;;;;;;;;;15.90;91.00;;;;;;5027166;28;19929;-82
2022/10/22 11:49:40;;;;;;;;;;;16.00;92.40;;;;;;5018707;28;19921;-82
2022/10/22 11:52:23;;;;;;;;;;;16.10;91.70;;;;;;5025243;28;19917;-83
2022/10/22 11:54:52;;;;;;;;;;;16.20;90.90;;;;;;5028870;28;20401;-82
2022/10/22 11:57:19;;;;;;;;;;;16.00;90.10;;;;;;5030203;28;19967;-83
2022/10/22 11:59:49;;;;;;;;;;;16.00;89.10;;;;;;5027675;28;19924;-82
2022/10/22 12:02:22;;;;;;;;;;;16.10;90.30;;;;;;5023401;28;19963;-83
2022/10/22 12:04:48;;;;;;;;;;;16.00;89.40;;;;;;4985429;28;19990;-82
2022/10/22 12:07:32;;;;;;;;;;;16.20;90.10;;;;;;5023311;28;20357;-83
2022/10/22 12:09:58;;;;;;;;;;;16.20;90.30;;;;;;5023204;28;20784;-83
2022/10/22 12:12:23;;;;;;;;;;;16.20;89.60;;;;;;5016501;28;20009;-83
2022/10/22 12:14:53;;;;;;;;;;;16.30;90.10;;;;;;5021136;28;19917;-83
2022/10/22 12:17:20;;;;;;;;;;;16.30;88.30;;;;;;5027454;28;19917;-82
2022/10/22 12:19:48;;;;;;;;;;;16.40;89.50;;;;;;5023486;28;19928;-82
2022/10/22 12:22:15;;;;;;;;;;;16.50;90.00;;;;;;5008052;28;19932;-82
2022/10/22 12:24:43;;;;;;;;;;;16.40;86.90;;;;;;5027972;28;19950;-82
2022/10/22 12:27:49;;;;;;;;;;;16.40;87.20;;;;;;5022575;28;19933;-82
2022/10/22 12:30:15;;;;;;;;;;;16.50;84.70;;;;;;4947835;29;19969;-82
2022/10/22 12:32:40;;;;;;;;;;;16.60;85.80;;;;;;4949326;29;20351;-82
2022/10/22 12:35:07;;;;;;;;;;;16.50;85.30;;;;;;4969746;28;20023;-82
2022/10/22 12:37:34;;;;;;;;;;;16.50;85.90;;;;;;5029593;28;19917;-82
2022/10/22 12:40:00;;;;;;;;;;;16.60;85.00;;;;;;5027047;28;19919;-82
2022/10/22 12:42:25;;;;;;;;;;;16.70;85.50;;;;;;5020358;28;19951;-82
2022/10/22 12:44:55;;;;;;;;;;;16.60;86.00;;;;;;5011517;28;19921;-82
2022/10/22 12:47:20;;;;;;;;;;;16.60;85.60;;;;;;5026628;28;19947;-82
2022/10/22 12:49:47;;;;;;;;;;;16.50;83.40;;;;;;5026268;28;20634;-82
2022/10/22 12:52:14;;;;;;;;;;;16.70;85.00;;;;;;5025591;28;19927;-82
2022/10/22 12:54:40;;;;;;;;;;;16.70;83.20;;;;;;5023391;28;19935;-83
2022/10/22 12:57:09;;;;;;;;;;;16.80;84.10;;;;;;5018094;28;19921;-83
2022/10/22 12:59:36;;;;;;;;;;;16.70;82.00;;;;;;5029909;28;20659;-83
2022/10/22 13:02:13;;;;;;;;;;;16.70;83.30;;;;;;5029359;28;19924;-82
2022/10/22 13:04:39;;;;;;;;;;;16.70;83.90;;;;;;5011623;28;20292;-82
2022/10/22 13:07:14;;;;;;;;;;;16.70;83.20;;;;;;5017965;28;19924;-82
2022/10/22 13:09:41;;;;;;;;;;;16.60;82.50;;;;;;5029791;28;20420;-82
2022/10/22 13:12:09;;;;;;;;;;;16.70;81.80;;;;;;5027530;28;19914;-82
2022/10/22 13:14:37;;;;;;;;;;;16.80;84.60;;;;;;5024889;28;19913;-82
2022/10/22 13:17:05;;;;;;;;;;;16.80;83.00;;;;;;5031475;28;19970;-82
2022/10/22 13:19:42;;;;;;;;;;;16.90;82.90;;;;;;5026788;28;19925;-82
2022/10/22 13:22:23;;;;;;;;;;;16.80;80.10;;;;;;5029793;28;19968;-82
2022/10/22 13:24:50;;;;;;;;;;;16.90;81.40;;;;;;5031221;28;19913;-82
2022/10/22 13:27:15;;;;;;;;;;;16.90;80.00;;;;;;5012296;28;19965;-82
2022/10/22 13:29:41;;;;;;;;;;;17.00;79.90;;;;;;5023294;28;20690;-82
2022/10/22 13:32:26;;;;;;;;;;;17.20;80.00;;;;;;5021766;28;20004;-82
2022/10/22 13:34:51;;;;;;;;;;;17.30;79.00;;;;;;5020575;28;19920;-82
2022/10/22 13:37:17;;;;;;;;;;;17.30;79.40;;;;;;5031306;28;19924;-82
2022/10/22 13:39:42;;;;;;;;;;;17.30;76.50;;;;;;5030684;28;19931;-82
2022/10/22 13:42:11;;;;;;;;;;;17.50;77.80;;;;;;5030103;28;19967;-82
2022/10/22 13:44:36;;;;;;;;;;;17.60;75.00;;;;;;5032034;28;20016;-79
2022/10/22 13:47:02;;;;;;;;;;;17.80;75.90;;;;;;5012858;28;19988;-81
2022/10/22 13:49:27;;;;;;;;;;;17.90;73.60;;;;;;5022046;28;19929;-80
2022/10/22 13:51:53;;;;;;;;;;;18.10;75.50;;;;;;5028686;28;19921;-82
2022/10/22 13:54:20;;;;;;;;;;;18.30;72.90;;;;;;4992519;28;20376;-81
2022/10/22 13:56:45;;;;;;;;;;;18.50;72.30;;;;;;5030896;28;19935;-83
2022/10/22 13:59:11;;;;;;;;;;;18.20;72.60;;;;;;5011561;28;20369;-82
2022/10/22 14:01:37;;;;;;;;;;;18.00;75.70;;;;;;5030575;28;20000;-81
2022/10/22 14:04:04;;;;;;;;;;;17.80;75.80;;;;;;4998432;28;20016;-80
2022/10/22 14:06:30;;;;;;;;;;;17.60;75.70;;;;;;5005053;28;19997;-81
2022/10/22 14:08:57;;;;;;;;;;;17.40;76.20;;;;;;5020875;28;19920;-81
2022/10/22 14:11:23;;;;;;;;;;;17.30;78.90;;;;;;5030801;28;19921;-81
2022/10/22 14:13:49;;;;;;;;;;;17.10;78.00;;;;;;5028777;28;19917;-81
2022/10/22 14:16:18;;;;;;;;;;;17.10;78.00;;;;;;5026845;28;19921;-81
2022/10/22 14:18:44;;;;;;;;;;;16.90;78.00;;;;;;5007002;28;19976;-82
2022/10/22 14:21:11;;;;;;;;;;;16.60;80.70;;;;;;5014100;28;19917;-81
2022/10/22 14:23:38;;;;;;;;;;;16.50;78.80;;;;;;5009306;28;20639;-82
2022/10/22 14:26:06;;;;;;;;;;;16.50;79.00;;;;;;5010514;28;19936;-82
2022/10/22 14:28:31;;;;;;;;;;;16.60;79.60;;;;;;5030400;28;19948;-82
2022/10/22 14:30:57;;;;;;;;;;;16.70;78.60;;;;;;5011429;28;19964;-83
2022/10/22 14:33:24;;;;;;;;;;;16.80;79.40;;;;;;5029967;28;20406;-83
2022/10/22 14:35:50;;;;;;;;;;;16.80;80.00;;;;;;5006021;28;19917;-82
2022/10/22 14:38:16;;;;;;;;;;;16.80;78.60;;;;;;5026772;28;19913;-81
2022/10/22 14:40:42;;;;;;;;;;;16.80;79.50;;;;;;5013178;28;19920;-80
2022/10/22 14:43:21;;;;;;;;;;;16.90;79.30;;;;;;5014476;28;19920;-81
2022/10/22 14:45:47;;;;;;;;;;;17.00;80.80;;;;;;5041160;28;19932;-81
2022/10/22 14:48:14;;;;;;;;;;;17.00;80.10;;;;;;5026872;28;19917;-81
2022/10/22 14:50:40;;;;;;;;;;;17.00;79.40;;;;;;5004852;28;20039;-81
2022/10/22 14:53:06;;;;;;;;;;;17.00;78.70;;;;;;5006006;28;20028;-81
2022/10/22 14:55:31;;;;;;;;;;;16.90;79.20;;;;;;5026422;28;19956;-82